LFBO

Toulouse-Blagnac Airport

Toulouse/Blagnac, France
TAF LFBO 181100Z 1812/1918 VRB03KT 9999 BKN030 BKN080 PROB30 TEMPO 1812/1814 BKN013 PROB30 TEMPO 1814/1818 -SHRA SCT018TCU BKN020 BECMG 1819/1821 CAVOK TEMPO 1900/1910 3000 BR PROB40 TEMPO 1903/1907 0400 FG VV/// BECMG 1905/1907 24005KT PROB40 TEMPO 1907/1911 BKN005 BECMG 1911/1913 01005KT SCT020 BECMG 1917/1918 CAVOK
Issued Valid From Valid To
Oct-18 @ 11:00 UTC
(46 minutes ago)
Oct-18 @ 12:00 UTC
(in 14 minutes)
Oct-19 @ 18:00 UTC
(-1 days ago)
Oct-18 @ 12:00 to Oct-18 @ 19:00
TAF LFBO 181100Z 1812/1918 VRB03KT 9999 BKN030 BKN080
Wind Visibility Clouds
Variable at 3 knots 10,000+ meters
  • Broken at 3,000' AGL
  • Broken at 8,000' AGL
Temporary  (Probability 30%) Oct-18 @ 12:00 to Oct-18 @ 14:00
PROB30 TEMPO 1812/1814 BKN013
Clouds
  • Broken at 1,300' AGL
Temporary  (Probability 30%) Oct-18 @ 14:00 to Oct-18 @ 18:00
PROB30 TEMPO 1814/1818 -SHRA SCT018TCU BKN020
Clouds Conditions
  • Scattered at 1,800' AGL
  • Broken at 2,000' AGL
  • Light Rain
Becoming Oct-18 @ 19:00 to Oct-19 @ 05:00
BECMG 1819/1821 CAVOK
Wind Visibility Clouds Conditions
Variable at 3 knots 10,000+ meters
  • No significant clouds
Temporary Oct-19 @ 00:00 to Oct-19 @ 10:00
TEMPO 1900/1910 3000 BR
Visibility Conditions
2,993 meters
  • Mist
Temporary  (Probability 40%) Oct-19 @ 03:00 to Oct-19 @ 07:00
PROB40 TEMPO 1903/1907 0400 FG VV///
Visibility Conditions
402 meters
  • Fog
Becoming Oct-19 @ 05:00 to Oct-19 @ 11:00
BECMG 1905/1907 24005KT
Wind Visibility Clouds Conditions
240° at 5 knots 10,000+ meters
  • No significant clouds
Temporary  (Probability 40%) Oct-19 @ 07:00 to Oct-19 @ 11:00
PROB40 TEMPO 1907/1911 BKN005
Clouds
  • Broken at 500' AGL
Becoming Oct-19 @ 11:00 to Oct-19 @ 17:00
BECMG 1911/1913 01005KT SCT020
Wind Visibility Clouds Conditions
10° at 5 knots 10,000+ meters
  • Scattered at 2,000' AGL
Becoming Oct-19 @ 17:00 to Oct-19 @ 18:00
BECMG 1917/1918 CAVOK
Wind Visibility Clouds Conditions
10° at 5 knots 10,000+ meters
  • No significant clouds
TAF LFBO 181100Z 1812/1918 VRB03KT 9999 BKN030 BKN080 PROB30 TEMPO 1812/1814 BKN013 PROB30 TEMPO 1814/1818 -SHRA SCT018TCU BKN020 BECMG 1819/1821 CAVOK TEMPO 1900/1910 3000 BR PROB40 TEMPO 1903/1907 0400 FG VV/// BECMG 1905/1907 24005KT PROB40 TEMPO 1907/1911 BKN005 BECMG 1911/1913 01005KT SCT020 BECMG 1917/1918 CAVOK
Issued Oct-18 @ 11:00 UTC
(46 minutes ago)
Valid From Oct-18 @ 12:00 UTC
(in 14 minutes)
Valid To Oct-19 @ 18:00 UTC
(-1 days ago)
Oct-18 @ 12:00 - Oct-18 @ 19:00
Wind Visibility
Variable at 3 knots 10,000+ meters
Clouds
  • Broken at 3,000' AGL
  • Broken at 8,000' AGL
Probability 30% Temporary Oct-18 @ 12:00 - Oct-18 @ 14:00
Clouds
  • Broken at 1,300' AGL
Probability 30% Temporary Oct-18 @ 14:00 - Oct-18 @ 18:00
Clouds
  • Scattered at 1,800' AGL
  • Broken at 2,000' AGL
Conditions
  • Light Rain
Becoming Oct-18 @ 19:00 - Oct-19 @ 05:00
Wind Visibility
Variable at 3 knots 10,000+ meters
Clouds
  • No significant clouds
Conditions
Temporary Oct-19 @ 00:00 - Oct-19 @ 10:00
Conditions
  • Mist
Probability 40% Temporary Oct-19 @ 03:00 - Oct-19 @ 07:00
Conditions
  • Fog
Becoming Oct-19 @ 05:00 - Oct-19 @ 11:00
Wind Visibility
240° at 5 knots 10,000+ meters
Clouds
  • No significant clouds
Conditions
Probability 40% Temporary Oct-19 @ 07:00 - Oct-19 @ 11:00
Clouds
  • Broken at 500' AGL
Becoming Oct-19 @ 11:00 - Oct-19 @ 17:00
Wind Visibility
10° at 5 knots 10,000+ meters
Clouds
  • Scattered at 2,000' AGL
Conditions
Becoming Oct-19 @ 17:00 - Oct-19 @ 18:00
Wind Visibility
10° at 5 knots 10,000+ meters
Clouds
  • No significant clouds
Conditions